Time;durP1;ratioP1;P1;durP2;ratioP2;P2;SDS_P1;SDS_P2;PMS_P1;PMS_P2;Temp;Humidity;BMP_temperature;BMP_pressure;BME280_temperature;BME280_humidity;BME280_pressure;Samples;Min_cycle;Max_cycle;Signal;HPM_P1;HPM_P2
2023/03/12 00:01:38;;;;;;;11.93;7.45;;;0.90;99.90;;;;;;5032147;28;20064;-71
2023/03/12 00:04:03;;;;;;;;;;;1.00;99.90;;;;;;5031356;28;20053;-71
2023/03/12 00:06:29;;;;;;;10.48;7.65;;;0.90;99.90;;;;;;5026698;28;20411;-70
2023/03/12 00:08:55;;;;;;;11.85;7.32;;;0.90;99.90;;;;;;5024112;28;20042;-71
2023/03/12 00:11:20;;;;;;;11.48;7.97;;;0.90;99.90;;;;;;5031026;28;20455;-71
2023/03/12 00:13:54;;;;;;;14.63;8.48;;;0.90;99.90;;;;;;5032244;28;20037;-71
2023/03/12 00:16:21;;;;;;;11.75;8.13;;;0.90;99.90;;;;;;5032329;28;20056;-71
2023/03/12 00:18:49;;;;;;;12.88;8.50;;;0.80;99.90;;;;;;5026862;28;20116;-71
2023/03/12 00:21:15;;;;;;;;;;;0.80;99.90;;;;;;5029654;28;20477;-72
2023/03/12 00:23:40;;;;;;;11.90;7.70;;;0.80;99.90;;;;;;5028767;28;19920;-71
2023/03/12 00:26:09;;;;;;;16.33;8.32;;;0.80;99.90;;;;;;5023301;28;20481;-71
2023/03/12 00:28:35;;;;;;;10.95;7.68;;;0.80;99.90;;;;;;5021223;28;20045;-72
2023/03/12 00:31:02;;;;;;;11.20;7.28;;;0.90;99.90;;;;;;5024827;28;20053;-71
2023/03/12 00:33:28;;;;;;;11.63;7.15;;;0.90;99.90;;;;;;5028173;28;20052;-71
2023/03/12 00:35:55;;;;;;;15.07;7.55;;;0.90;99.90;;;;;;5020421;28;20037;-71
2023/03/12 00:38:21;;;;;;;14.55;7.72;;;0.90;99.90;;;;;;5020463;28;20123;-71
2023/03/12 00:40:49;;;;;;;14.02;7.00;;;0.90;99.90;;;;;;5026932;28;20175;-71
2023/03/12 00:43:15;;;;;;;10.18;5.75;;;0.90;99.90;;;;;;5030408;28;20042;-71
2023/03/12 00:45:41;;;;;;;13.20;5.95;;;1.00;99.90;;;;;;5029571;28;20041;-71
2023/03/12 00:48:06;;;;;;;10.10;6.45;;;1.00;99.90;;;;;;5022152;28;20054;-71
2023/03/12 00:50:32;;;;;;;11.23;6.32;;;1.10;99.90;;;;;;5026087;28;20155;-71
2023/03/12 00:52:57;;;;;;;12.43;6.25;;;1.10;99.90;;;;;;5026652;28;20049;-71
2023/03/12 00:55:23;;;;;;;10.85;6.25;;;1.10;99.90;;;;;;5027045;28;20045;-71
2023/03/12 00:57:49;;;;;;;13.05;6.10;;;1.10;99.90;;;;;;5029418;28;20046;-71
2023/03/12 01:00:15;;;;;;;12.48;6.85;;;1.10;99.90;;;;;;5029473;28;20404;-71
2023/03/12 01:02:40;;;;;;;11.52;6.40;;;1.00;99.90;;;;;;5026426;28;20045;-71
2023/03/12 01:05:10;;;;;;;12.93;6.17;;;1.00;99.90;;;;;;5022457;28;20076;-71
2023/03/12 01:07:35;;;;;;;12.13;6.68;;;1.00;99.90;;;;;;5025608;28;20299;-71
2023/03/12 01:10:01;;;;;;;12.25;6.13;;;1.00;99.90;;;;;;5028690;28;20056;-71
2023/03/12 01:12:27;;;;;;;10.40;6.13;;;1.00;99.90;;;;;;5020659;28;20037;-71
2023/03/12 01:14:53;;;;;;;10.57;6.03;;;1.00;99.90;;;;;;5024865;28;20447;-71
2023/03/12 01:17:18;;;;;;;9.57;5.63;;;0.90;99.90;;;;;;5027382;28;20120;-71
2023/03/12 01:19:44;;;;;;;10.60;5.50;;;0.90;99.90;;;;;;5026515;28;20045;-71
2023/03/12 01:22:09;;;;;;;10.45;5.65;;;1.00;99.90;;;;;;5027398;28;20132;-71
2023/03/12 01:24:35;;;;;;;10.32;5.90;;;0.90;99.90;;;;;;5028049;28;20476;-71
2023/03/12 01:27:01;;;;;;;10.10;6.00;;;0.90;99.90;;;;;;5019364;28;20034;-71
2023/03/12 01:29:29;;;;;;;10.05;5.53;;;0.90;99.90;;;;;;5019690;28;20045;-71
2023/03/12 01:31:55;;;;;;;12.43;6.28;;;0.80;99.90;;;;;;5017287;28;20096;-71
2023/03/12 01:34:20;;;;;;;10.45;5.75;;;0.80;99.90;;;;;;5020025;28;20107;-71
2023/03/12 01:36:46;;;;;;;10.00;6.10;;;0.80;99.90;;;;;;5020048;28;20100;-71
2023/03/12 01:39:13;;;;;;;9.52;6.10;;;0.80;99.90;;;;;;5024869;28;20562;-71
2023/03/12 01:41:39;;;;;;;11.15;5.55;;;0.80;99.90;;;;;;5030916;28;20129;-71
2023/03/12 01:44:06;;;;;;;12.25;6.00;;;0.80;99.90;;;;;;5026404;28;20121;-70
2023/03/12 01:46:41;;;;;;;12.23;5.93;;;0.90;99.90;;;;;;5025076;28;20033;-71
2023/03/12 01:49:33;;;;;;;8.02;5.45;;;0.90;99.90;;;;;;5014552;28;20037;-71
2023/03/12 01:52:03;;;;;;;10.35;6.30;;;0.90;99.90;;;;;;5021091;28;20393;-71
2023/03/12 01:54:48;;;;;;;11.18;6.03;;;0.90;99.90;;;;;;5027822;28;20049;-71
2023/03/12 01:57:25;;;;;;;10.68;6.38;;;0.90;99.90;;;;;;5022553;28;20589;-71
2023/03/12 01:59:58;;;;;;;10.68;6.57;;;1.00;99.90;;;;;;5029478;28;20056;-72
2023/03/12 02:02:27;;;;;;;10.15;6.22;;;1.00;99.90;;;;;;5028674;28;20049;-71
2023/03/12 02:05:22;;;;;;;11.38;6.93;;;1.00;99.90;;;;;;5025536;28;20033;-72
2023/03/12 02:07:48;;;;;;;11.73;6.80;;;1.10;99.90;;;;;;5007064;28;20461;-71
2023/03/12 02:10:15;;;;;;;9.82;6.60;;;1.10;99.90;;;;;;5023536;28;20463;-71
2023/03/12 02:12:40;;;;;;;11.48;6.75;;;1.10;99.90;;;;;;5026834;28;20136;-72
2023/03/12 02:15:07;;;;;;;10.88;6.80;;;1.20;99.90;;;;;;5028893;28;20129;-71
2023/03/12 02:17:35;;;;;;;12.15;6.78;;;1.20;99.90;;;;;;5028531;28;20065;-72
2023/03/12 02:20:24;;;;;;;9.20;7.15;;;1.30;99.90;;;;;;5028717;28;20049;-71
2023/03/12 02:23:07;;;;;;;10.68;6.82;;;1.20;99.90;;;;;;5027208;28;20049;-71
2023/03/12 02:25:40;;;;;;;15.35;7.00;;;1.30;99.90;;;;;;5028077;28;20045;-71
2023/03/12 02:28:11;;;;;;;11.75;6.53;;;1.30;99.90;;;;;;5018572;28;20045;-71
2023/03/12 02:30:39;;;;;;;10.77;7.25;;;1.30;99.90;;;;;;5022757;28;20125;-72
2023/03/12 02:33:07;;;;;;;12.63;6.57;;;1.40;99.90;;;;;;5020380;28;20052;-71
2023/03/12 02:35:34;;;;;;;11.15;6.90;;;1.40;99.90;;;;;;5017093;28;20052;-72
2023/03/12 02:37:59;;;;;;;13.27;6.27;;;1.40;99.90;;;;;;5023797;28;20092;-72
2023/03/12 02:40:37;;;;;;;11.20;6.88;;;1.40;99.90;;;;;;5019368;28;20448;-71
2023/03/12 02:43:06;;;;;;;9.43;6.60;;;1.40;99.90;;;;;;5028960;28;20045;-71
2023/03/12 02:45:34;;;;;;;13.40;7.75;;;1.40;99.90;;;;;;5028586;28;20053;-72
2023/03/12 02:48:00;;;;;;;11.95;7.30;;;1.40;99.90;;;;;;5023511;28;20055;-71
2023/03/12 02:50:26;;;;;;;10.38;7.05;;;1.40;99.90;;;;;;5020355;28;20037;-72
2023/03/12 02:52:52;;;;;;;13.13;7.43;;;1.40;99.90;;;;;;5026066;28;20080;-71
2023/03/12 02:55:17;;;;;;;12.93;7.50;;;1.40;99.90;;;;;;5023454;28;20053;-71
2023/03/12 02:57:43;;;;;;;10.77;7.63;;;1.40;99.90;;;;;;5025628;28;20064;-71
2023/03/12 03:00:11;;;;;;;16.77;7.82;;;1.50;99.90;;;;;;5020468;28;20476;-71
2023/03/12 03:02:37;;;;;;;12.00;7.55;;;1.50;99.90;;;;;;5027164;28;20053;-72
2023/03/12 03:05:03;;;;;;;15.70;8.10;;;1.50;99.90;;;;;;5027845;28;20033;-72
2023/03/12 03:07:29;;;;;;;13.55;8.85;;;1.50;99.90;;;;;;5025962;28;20531;-72
2023/03/12 03:09:55;;;;;;;13.25;8.38;;;1.40;99.90;;;;;;5027616;28;20037;-71
2023/03/12 03:12:21;;;;;;;14.45;9.38;;;1.40;99.90;;;;;;5021287;28;20053;-71
2023/03/12 03:14:47;;;;;;;12.53;8.90;;;1.50;99.90;;;;;;5024363;28;20495;-72
2023/03/12 03:17:13;;;;;;;12.48;9.02;;;1.50;99.90;;;;;;5018810;28;20093;-72
2023/03/12 03:19:39;;;;;;;15.75;9.55;;;1.50;99.90;;;;;;5024018;28;20117;-72
2023/03/12 03:22:05;;;;;;;14.13;9.65;;;1.50;99.90;;;;;;5027139;28;20124;-72
2023/03/12 03:24:31;;;;;;;13.98;9.27;;;1.50;99.90;;;;;;5025836;28;20048;-72
2023/03/12 03:26:56;;;;;;;12.30;9.50;;;1.50;99.90;;;;;;5015595;28;20037;-72
2023/03/12 03:29:22;;;;;;;12.80;8.93;;;1.50;99.90;;;;;;5016474;28;20496;-71
2023/03/12 03:31:48;;;;;;;14.50;9.30;;;1.50;99.90;;;;;;5019533;28;20091;-72
2023/03/12 03:34:13;;;;;;;11.75;8.32;;;1.50;99.90;;;;;;5017982;28;20045;-71
2023/03/12 03:36:39;;;;;;;11.77;8.73;;;1.50;99.90;;;;;;5014324;28;20095;-72
2023/03/12 03:39:04;;;;;;;13.02;8.23;;;1.50;99.90;;;;;;5018537;28;20416;-71
2023/03/12 03:41:31;;;;;;;14.43;8.43;;;1.50;99.90;;;;;;5025236;28;20615;-72
2023/03/12 03:43:58;;;;;;;12.68;8.30;;;1.50;99.90;;;;;;5017613;28;20053;-72
2023/03/12 03:46:24;;;;;;;12.68;8.40;;;1.50;99.90;;;;;;5029318;28;20037;-71
2023/03/12 03:48:50;;;;;;;12.63;8.43;;;1.50;99.90;;;;;;5025926;28;20045;-71
2023/03/12 03:51:16;;;;;;;14.50;8.55;;;1.50;99.90;;;;;;5026615;28;20107;-72
2023/03/12 03:53:42;;;;;;;14.27;8.57;;;1.50;99.90;;;;;;5022638;28;20432;-71
2023/03/12 03:56:10;;;;;;;12.25;7.78;;;1.50;99.90;;;;;;5027238;28;20034;-72
2023/03/12 03:58:36;;;;;;;11.88;7.70;;;1.50;99.90;;;;;;5022164;28;20056;-71
2023/03/12 04:01:02;;;;;;;13.38;7.57;;;1.50;99.90;;;;;;5028263;28;20093;-72
2023/03/12 04:03:27;;;;;;;13.18;8.98;;;1.50;99.90;;;;;;5020638;28;20064;-72
2023/03/12 04:05:59;;;;;;;14.65;8.90;;;1.50;99.90;;;;;;5016994;28;20052;-71
2023/03/12 04:08:24;;;;;;;11.50;7.68;;;1.50;99.90;;;;;;5022349;28;20504;-71
2023/03/12 04:10:50;;;;;;;11.15;8.43;;;1.40;99.90;;;;;;5025746;28;20060;-71
2023/03/12 04:13:16;;;;;;;11.70;8.30;;;1.40;99.90;;;;;;5029585;28;20508;-71
2023/03/12 04:15:49;;;;;;;13.45;8.27;;;1.40;99.90;;;;;;5026951;28;20432;-71
2023/03/12 04:18:15;;;;;;;14.20;8.10;;;1.40;99.90;;;;;;5028019;28;20103;-71
2023/03/12 04:20:41;;;;;;;13.38;8.18;;;1.40;99.90;;;;;;5028722;28;20041;-71
2023/03/12 04:23:07;;;;;;;14.50;9.70;;;1.50;99.90;;;;;;5026767;28;20041;-71
2023/03/12 04:25:33;;;;;;;13.85;8.68;;;1.40;99.90;;;;;;5021764;28;20457;-71
2023/03/12 04:27:58;;;;;;;13.35;8.15;;;1.40;99.90;;;;;;5024421;28;20064;-71
2023/03/12 04:30:24;;;;;;;14.45;8.80;;;1.50;99.90;;;;;;5030174;28;20041;-71
2023/03/12 04:32:49;;;;;;;12.52;8.05;;;1.50;99.90;;;;;;5028770;28;20152;-71
2023/03/12 04:35:15;;;;;;;14.23;8.63;;;1.50;99.90;;;;;;5030382;28;20045;-71
2023/03/12 04:37:41;;;;;;;16.10;8.73;;;1.50;99.90;;;;;;5027216;28;20377;-71
2023/03/12 04:40:08;;;;;;;13.88;8.93;;;1.50;99.90;;;;;;5024366;28;20450;-71
2023/03/12 04:42:35;;;;;;;13.85;8.18;;;1.50;99.90;;;;;;5032238;28;20404;-71
2023/03/12 04:45:03;;;;;;;12.93;8.80;;;1.50;99.90;;;;;;5029174;28;20049;-71
2023/03/12 04:47:30;;;;;;;14.98;8.60;;;1.50;99.90;;;;;;5020246;28;20493;-71
2023/03/12 04:49:56;;;;;;;13.50;7.75;;;1.50;99.90;;;;;;5019027;28;20045;-71
2023/03/12 04:52:21;;;;;;;12.73;8.80;;;1.50;99.90;;;;;;5023434;28;20037;-71
2023/03/12 04:54:47;;;;;;;12.50;8.63;;;1.50;99.90;;;;;;5024294;28;20507;-71
2023/03/12 04:57:13;;;;;;;14.02;7.85;;;1.50;99.90;;;;;;5030342;28;20499;-71
2023/03/12 04:59:38;;;;;;;12.48;8.32;;;1.50;99.90;;;;;;5023466;28;20061;-71
2023/03/12 05:02:04;;;;;;;13.50;8.55;;;1.50;99.90;;;;;;5023780;28;20308;-71
2023/03/12 05:04:30;;;;;;;12.95;8.57;;;1.50;99.90;;;;;;5028857;28;20099;-71
2023/03/12 05:06:55;;;;;;;13.43;7.47;;;1.50;99.90;;;;;;5029034;28;20537;-71
2023/03/12 05:09:21;;;;;;;12.05;8.25;;;1.50;99.90;;;;;;5023298;28;20652;-71
2023/03/12 05:11:47;;;;;;;12.55;7.90;;;1.50;99.90;;;;;;5032017;28;20037;-71
2023/03/12 05:14:12;;;;;;;14.57;8.38;;;1.50;99.90;;;;;;5031057;28;20041;-72
2023/03/12 05:16:38;;;;;;;12.32;8.23;;;1.50;99.90;;;;;;5028264;28;20207;-72
2023/03/12 05:19:04;;;;;;;12.35;8.05;;;1.50;99.90;;;;;;5025996;28;20408;-72
2023/03/12 05:21:30;;;;;;;11.85;7.70;;;1.50;99.90;;;;;;5032169;28;20073;-71
2023/03/12 05:23:58;;;;;;;11.07;7.35;;;1.60;99.90;;;;;;5024474;28;20073;-71
2023/03/12 05:26:24;;;;;;;;;;;1.60;99.90;;;;;;5026170;28;20088;-71
2023/03/12 05:28:51;;;;;;;13.55;8.05;;;1.60;99.90;;;;;;5026204;28;19921;-71
2023/03/12 05:31:17;;;;;;;11.23;8.38;;;1.60;99.90;;;;;;5029996;28;20057;-71
2023/03/12 05:33:43;;;;;;;14.07;8.88;;;1.60;99.90;;;;;;5024538;28;20485;-71
2023/03/12 05:36:09;;;;;;;12.05;8.52;;;1.60;99.90;;;;;;5023739;28;20045;-71
2023/03/12 05:38:35;;;;;;;15.43;9.02;;;1.60;99.90;;;;;;5028215;28;20045;-71
2023/03/12 05:41:01;;;;;;;13.13;8.95;;;1.60;99.90;;;;;;5025854;28;20041;-71
2023/03/12 05:43:27;;;;;;;15.50;9.32;;;1.60;99.90;;;;;;5022894;28;20041;-71
2023/03/12 05:45:59;;;;;;;10.98;8.35;;;1.60;99.90;;;;;;5024407;28;20037;-71
2023/03/12 05:48:24;;;;;;;12.18;8.75;;;1.60;99.90;;;;;;5025991;28;20037;-71
2023/03/12 05:50:50;;;;;;;14.20;9.57;;;1.60;99.90;;;;;;5018936;28;20036;-71
2023/03/12 05:53:15;;;;;;;17.27;10.27;;;1.60;99.90;;;;;;5030754;28;20512;-71
2023/03/12 05:55:41;;;;;;;16.30;10.68;;;1.60;99.90;;;;;;5025752;28;20052;-71
2023/03/12 05:58:07;;;;;;;12.93;9.65;;;1.60;99.90;;;;;;5025935;28;20042;-71
2023/03/12 06:00:37;;;;;;;11.88;9.40;;;1.50;99.90;;;;;;5014450;28;20061;-71
2023/03/12 06:03:07;;;;;;;15.73;10.10;;;1.60;99.90;;;;;;5016016;28;20053;-71
2023/03/12 06:05:34;;;;;;;17.67;10.23;;;1.60;99.90;;;;;;5023938;28;20057;-71
2023/03/12 06:08:01;;;;;;;13.48;10.10;;;1.60;99.90;;;;;;5043074;28;20080;-71
2023/03/12 06:10:27;;;;;;;13.65;10.15;;;1.60;99.90;;;;;;5029204;28;20530;-71
2023/03/12 06:12:54;;;;;;;14.65;10.13;;;1.60;99.90;;;;;;5027801;28;20077;-71
2023/03/12 06:15:19;;;;;;;13.93;10.43;;;1.60;99.90;;;;;;5029052;28;20096;-71
2023/03/12 06:17:45;;;;;;;15.82;10.30;;;1.60;99.90;;;;;;5029002;28;20041;-71
2023/03/12 06:20:11;;;;;;;14.20;10.60;;;1.60;99.90;;;;;;5029791;28;20045;-71
2023/03/12 06:22:37;;;;;;;14.15;10.50;;;1.60;99.90;;;;;;5022324;28;20069;-71
2023/03/12 06:25:03;;;;;;;13.25;10.55;;;1.60;99.90;;;;;;5028475;28;20073;-71
2023/03/12 06:27:29;;;;;;;13.33;9.93;;;1.60;99.90;;;;;;5027819;28;20544;-71
2023/03/12 06:29:55;;;;;;;13.25;10.52;;;1.60;99.90;;;;;;5025469;28;20136;-71
2023/03/12 06:32:21;;;;;;;16.10;10.25;;;1.60;99.90;;;;;;5024787;28;20099;-71
2023/03/12 06:34:46;;;;;;;20.20;10.05;;;1.60;99.90;;;;;;5013965;28;20041;-71
2023/03/12 06:37:12;;;;;;;14.45;10.30;;;1.60;99.90;;;;;;5027397;28;20132;-71
2023/03/12 06:39:38;;;;;;;16.15;10.50;;;1.70;99.90;;;;;;5025203;28;20757;-71
2023/03/12 06:42:04;;;;;;;13.50;9.82;;;1.60;99.90;;;;;;5023105;28;20049;-71
2023/03/12 06:44:30;;;;;;;12.77;9.93;;;1.70;99.90;;;;;;5027374;28;20040;-71
2023/03/12 06:46:56;;;;;;;16.00;10.20;;;1.70;99.90;;;;;;5019783;28;20045;-71
2023/03/12 06:49:22;;;;;;;15.55;12.77;;;1.60;99.90;;;;;;5024445;28;20037;-70
2023/03/12 06:51:48;;;;;;;21.05;18.52;;;1.70;99.90;;;;;;5025879;28;20455;-70
2023/03/12 06:54:14;;;;;;;20.85;15.88;;;1.70;99.90;;;;;;5027063;28;20085;-71
2023/03/12 06:56:40;;;;;;;16.15;11.15;;;1.70;99.90;;;;;;5023428;28;20060;-71
2023/03/12 06:59:06;;;;;;;12.10;10.00;;;1.70;99.90;;;;;;5024473;28;20060;-71
2023/03/12 07:01:32;;;;;;;14.85;9.95;;;1.70;99.90;;;;;;5017472;28;20440;-71
2023/03/12 07:03:57;;;;;;;13.80;9.77;;;1.70;99.90;;;;;;5021291;28;20695;-71
2023/03/12 07:06:24;;;;;;;13.82;9.00;;;1.70;99.90;;;;;;5029904;28;20120;-71
2023/03/12 07:08:50;;;;;;;13.00;9.50;;;1.80;99.90;;;;;;5018495;28;20053;-71
2023/03/12 07:11:17;;;;;;;12.77;9.70;;;1.80;99.90;;;;;;5025571;28;20061;-71
2023/03/12 07:13:43;;;;;;;15.70;10.10;;;1.80;99.90;;;;;;5028041;28;20071;-71
2023/03/12 07:16:09;;;;;;;14.18;9.43;;;1.80;99.90;;;;;;5025096;28;21086;-71
2023/03/12 07:18:35;;;;;;;15.67;10.07;;;1.80;99.90;;;;;;5027936;28;20048;-71
2023/03/12 07:21:02;;;;;;;12.80;9.32;;;1.80;99.90;;;;;;5027632;28;20045;-71
2023/03/12 07:23:28;;;;;;;12.02;9.13;;;1.80;99.90;;;;;;5021591;28;20472;-71
2023/03/12 07:25:54;;;;;;;12.35;9.40;;;1.90;99.90;;;;;;5019488;28;20088;-71
2023/03/12 07:28:20;;;;;;;14.98;9.88;;;1.90;99.90;;;;;;5028168;28;20093;-71
2023/03/12 07:30:52;;;;;;;14.38;9.38;;;1.90;99.90;;;;;;5023847;28;21461;-71
2023/03/12 07:33:20;;;;;;;15.63;11.18;;;1.90;99.90;;;;;;5019856;28;20034;-71
2023/03/12 07:35:47;;;;;;;13.55;11.52;;;1.90;99.90;;;;;;5018151;28;20043;-71
2023/03/12 07:38:13;;;;;;;14.95;10.88;;;1.90;99.90;;;;;;5016671;28;20068;-71
2023/03/12 07:40:38;;;;;;;15.27;10.73;;;2.00;99.90;;;;;;5021721;28;20095;-70
2023/03/12 07:43:09;;;;;;;16.38;9.45;;;2.00;99.90;;;;;;5024360;28;20485;-71
2023/03/12 07:45:37;;;;;;;15.27;10.40;;;2.00;99.90;;;;;;5027078;28;20045;-71
2023/03/12 07:48:03;;;;;;;13.55;10.82;;;2.00;99.90;;;;;;5024200;28;20092;-71
2023/03/12 07:50:28;;;;;;;13.70;10.20;;;2.00;99.90;;;;;;5026206;28;20489;-70
2023/03/12 07:52:54;;;;;;;15.40;10.32;;;2.00;99.90;;;;;;5017252;28;20152;-71
2023/03/12 07:55:20;;;;;;;12.70;9.70;;;2.10;99.90;;;;;;5027922;28;20377;-71
2023/03/12 07:57:45;;;;;;;14.57;10.35;;;2.00;99.90;;;;;;5029969;28;20088;-71
2023/03/12 08:00:12;;;;;;;14.82;9.95;;;2.10;99.90;;;;;;5026892;28;20091;-71
2023/03/12 08:02:38;;;;;;;14.90;9.98;;;2.10;99.90;;;;;;5029552;28;20052;-71
2023/03/12 08:05:04;;;;;;;14.68;9.65;;;2.10;99.90;;;;;;5028885;28;20049;-71
2023/03/12 08:07:33;;;;;;;15.40;11.13;;;2.10;99.90;;;;;;5033925;28;20120;-71
2023/03/12 08:10:04;;;;;;;14.93;10.35;;;2.10;99.90;;;;;;5028417;28;20095;-71
2023/03/12 08:12:30;;;;;;;13.05;9.82;;;2.10;99.90;;;;;;5029824;28;20099;-71
2023/03/12 08:14:56;;;;;;;14.32;10.50;;;2.10;99.90;;;;;;5031767;28;20049;-74
2023/03/12 08:17:21;;;;;;;14.88;11.55;;;2.10;99.90;;;;;;5030997;28;20048;-72
2023/03/12 08:19:47;;;;;;;13.23;10.77;;;2.10;99.90;;;;;;5031782;28;20045;-70
2023/03/12 08:22:13;;;;;;;15.35;10.40;;;2.10;99.90;;;;;;5028176;28;20037;-72
2023/03/12 08:24:39;;;;;;;12.98;11.00;;;2.10;99.90;;;;;;5024699;28;20042;-70
2023/03/12 08:27:04;;;;;;;14.90;11.02;;;2.10;99.90;;;;;;5024225;28;20045;-70
2023/03/12 08:29:31;;;;;;;12.93;11.00;;;2.10;99.90;;;;;;5029612;28;20480;-71
2023/03/12 08:31:57;;;;;;;15.15;11.57;;;2.10;99.90;;;;;;5030729;28;20037;-70
2023/03/12 08:34:23;;;;;;;16.83;11.27;;;2.00;99.90;;;;;;5025199;28;20438;-72
2023/03/12 08:36:49;;;;;;;15.80;11.40;;;2.00;99.90;;;;;;5017957;28;20064;-72
2023/03/12 08:39:14;;;;;;;15.88;12.45;;;2.00;99.90;;;;;;5028342;28;20401;-70
2023/03/12 08:41:40;;;;;;;18.27;11.77;;;2.00;99.90;;;;;;5031628;28;20041;-71
2023/03/12 08:44:06;;;;;;;12.57;11.27;;;2.00;99.90;;;;;;5038575;28;20427;-70
2023/03/12 08:46:32;;;;;;;17.20;11.60;;;2.00;99.90;;;;;;5016718;28;20469;-70
2023/03/12 08:48:57;;;;;;;17.83;12.02;;;2.00;99.90;;;;;;5031777;28;20586;-69
2023/03/12 08:51:23;;;;;;;14.55;11.55;;;2.00;99.90;;;;;;5021999;28;20061;-70
2023/03/12 08:53:48;;;;;;;13.48;10.88;;;2.00;99.90;;;;;;5028250;28;20088;-70
2023/03/12 08:56:14;;;;;;;13.48;10.93;;;2.10;99.90;;;;;;5023845;28;20057;-69
2023/03/12 08:58:40;;;;;;;17.33;11.68;;;2.10;99.90;;;;;;5024025;28;20058;-69
2023/03/12 09:01:10;;;;;;;15.80;12.50;;;2.10;99.90;;;;;;5023545;28;20136;-69
2023/03/12 09:03:36;;;;;;;14.50;12.65;;;2.10;99.90;;;;;;5030351;28;20050;-69
2023/03/12 09:06:05;;;;;;;14.77;12.68;;;2.10;99.90;;;;;;5029617;28;20048;-69
2023/03/12 09:08:32;;;;;;;15.88;11.40;;;2.10;99.90;;;;;;5030185;28;20041;-69
2023/03/12 09:10:58;;;;;;;;;;;2.10;99.90;;;;;;5030232;28;20497;-69
2023/03/12 09:13:24;;;;;;;16.73;12.27;;;2.10;99.90;;;;;;5024401;28;19925;-69
2023/03/12 09:15:50;;;;;;;16.80;12.00;;;2.10;99.90;;;;;;5024800;28;20400;-69
2023/03/12 09:18:15;;;;;;;21.75;12.90;;;2.20;99.90;;;;;;5026165;28;20382;-69
2023/03/12 09:20:42;;;;;;;14.90;11.90;;;2.20;99.90;;;;;;5031050;28;20037;-69
2023/03/12 09:23:07;;;;;;;16.25;11.88;;;2.20;99.90;;;;;;5028517;28;20037;-69
2023/03/12 09:25:33;;;;;;;14.48;12.90;;;2.20;99.90;;;;;;5030654;28;20099;-69
2023/03/12 09:28:00;;;;;;;15.93;12.27;;;2.20;99.90;;;;;;5030921;28;20030;-69
2023/03/12 09:30:29;;;;;;;15.68;12.00;;;2.20;99.90;;;;;;5031132;28;20061;-69
2023/03/12 09:32:54;;;;;;;15.80;12.73;;;2.20;99.90;;;;;;5020107;28;20560;-69
2023/03/12 09:35:20;;;;;;;19.13;13.55;;;2.20;99.90;;;;;;5028434;28;20041;-69
2023/03/12 09:37:50;;;;;;;18.83;14.40;;;2.20;99.90;;;;;;5026568;28;20481;-69
2023/03/12 09:40:22;;;;;;;18.45;14.38;;;2.20;99.90;;;;;;5020100;28;20165;-69
2023/03/12 09:43:09;;;;;;;16.63;14.60;;;2.20;99.90;;;;;;5028359;28;20092;-69
2023/03/12 09:45:41;;;;;;;;;;;2.20;99.90;;;;;;5032249;28;20073;-70
2023/03/12 09:48:17;;;;;;;17.60;15.02;;;2.10;99.90;;;;;;5018088;28;20380;-69
2023/03/12 09:50:46;;;;;;;17.33;15.15;;;2.10;99.90;;;;;;5028286;28;20045;-69
2023/03/12 09:53:40;;;;;;;20.52;15.43;;;2.10;99.90;;;;;;5025948;28;20139;-69
2023/03/12 09:56:13;;;;;;;18.10;15.65;;;2.10;99.90;;;;;;5027558;28;20057;-69
2023/03/12 09:58:41;;;;;;;21.05;15.32;;;2.10;99.90;;;;;;5026457;28;20634;-69
2023/03/12 10:01:37;;;;;;;20.48;15.82;;;2.20;99.90;;;;;;5030591;28;20132;-69
2023/03/12 10:04:06;;;;;;;23.52;17.30;;;2.20;99.90;;;;;;5020485;28;20165;-69
2023/03/12 10:06:51;;;;;;;21.52;16.40;;;2.10;99.90;;;;;;5027032;28;20041;-69
2023/03/12 10:09:45;;;;;;;25.40;17.05;;;2.20;99.90;;;;;;5025650;28;20057;-70
2023/03/12 10:12:32;;;;;;;22.27;17.77;;;2.20;99.90;;;;;;4985447;28;20054;-72
2023/03/12 10:15:01;;;;;;;20.88;17.67;;;2.20;99.90;;;;;;5028240;28;20068;-70
2023/03/12 10:18:00;;;;;;;23.05;18.27;;;2.20;99.90;;;;;;5030427;28;20050;-69
2023/03/12 10:20:40;;;;;;;22.90;18.77;;;2.20;99.90;;;;;;4978946;28;20115;-69
2023/03/12 10:23:12;;;;;;;21.83;19.55;;;2.20;99.90;;;;;;5026837;28;20056;-69
2023/03/12 10:26:04;;;;;;;21.30;18.38;;;2.20;99.90;;;;;;5020067;28;20111;-68
2023/03/12 10:29:12;;;;;;;27.95;20.60;;;2.20;99.90;;;;;;5028836;28;20087;-68
2023/03/12 10:32:25;;;;;;;23.02;19.17;;;2.20;99.90;;;;;;4996877;28;20068;-72
2023/03/12 10:35:03;;;;;;;24.30;19.52;;;2.20;99.90;;;;;;5021326;28;20059;-71
2023/03/12 10:37:36;;;;;;;21.25;18.17;;;2.20;99.90;;;;;;5016858;28;20527;-71
2023/03/12 10:40:04;;;;;;;22.25;19.25;;;2.30;99.90;;;;;;5017619;28;20053;-71
2023/03/12 10:42:30;;;;;;;26.38;21.30;;;2.30;99.90;;;;;;5016467;28;20042;-69
2023/03/12 10:45:08;;;;;;;25.92;20.52;;;2.40;99.90;;;;;;5025629;28;20053;-69
2023/03/12 10:47:36;;;;;;;22.83;20.20;;;2.40;99.90;;;;;;5029004;28;20045;-68
2023/03/12 10:50:19;;;;;;;23.30;20.50;;;2.40;99.90;;;;;;5023650;28;20073;-69
2023/03/12 10:52:48;;;;;;;24.73;21.52;;;2.40;99.90;;;;;;5032389;28;20344;-68
2023/03/12 10:55:25;;;;;;;24.25;21.38;;;2.50;99.90;;;;;;5030719;28;20060;-70
2023/03/12 10:57:52;;;;;;;24.13;21.05;;;2.50;99.90;;;;;;5031685;28;20048;-70
2023/03/12 11:00:31;;;;;;;26.23;21.65;;;2.50;99.90;;;;;;5029383;28;20061;-69
2023/03/12 11:02:57;;;;;;;23.00;19.95;;;2.50;99.90;;;;;;5030734;28;20057;-69
2023/03/12 11:05:33;;;;;;;25.13;22.20;;;2.60;99.90;;;;;;5028501;28;20053;-69
2023/03/12 11:08:00;;;;;;;26.13;21.83;;;2.60;99.90;;;;;;5021802;28;20045;-68
2023/03/12 11:10:44;;;;;;;28.45;24.50;;;2.60;99.90;;;;;;5012392;28;20030;-68
2023/03/12 11:13:27;;;;;;;29.67;24.27;;;2.70;99.90;;;;;;5024858;28;20121;-68
2023/03/12 11:15:55;;;;;;;27.42;24.58;;;2.70;99.90;;;;;;5019961;28;20076;-68
2023/03/12 11:18:24;;;;;;;;;;;2.70;99.90;;;;;;5028646;28;20787;-68
2023/03/12 11:21:11;;;;;;;27.80;23.73;;;2.80;99.90;;;;;;5029549;28;19921;-68
2023/03/12 11:23:38;;;;;;;;;;;2.80;99.90;;;;;;5022094;28;20034;-68
2023/03/12 11:26:16;;;;;;;27.88;23.13;;;2.80;99.90;;;;;;5025268;28;19935;-68
2023/03/12 11:28:56;;;;;;;30.33;24.00;;;2.90;99.90;;;;;;5025012;28;20086;-68
2023/03/12 11:31:27;;;;;;;28.45;22.85;;;2.90;99.90;;;;;;5019743;28;20042;-67
2023/03/12 11:34:02;;;;;;;33.53;26.42;;;2.90;99.90;;;;;;5014495;28;20056;-67
2023/03/12 11:36:47;;;;;;;29.50;26.40;;;3.00;99.90;;;;;;5025764;28;20050;-68
2023/03/12 11:39:32;;;;;;;33.05;28.02;;;3.10;99.90;;;;;;5027782;28;20037;-68
2023/03/12 11:42:19;;;;;;;29.00;25.73;;;3.10;99.90;;;;;;5014347;28;20084;-67
2023/03/12 11:44:59;;;;;;;29.67;24.58;;;3.20;99.90;;;;;;5026297;28;20404;-67
2023/03/12 11:47:35;;;;;;;30.55;26.50;;;3.20;99.90;;;;;;5020751;28;20041;-67
2023/03/12 11:50:16;;;;;;;31.50;27.95;;;3.20;99.90;;;;;;5026023;28;20045;-67
2023/03/12 11:53:03;;;;;;;34.70;27.95;;;3.30;99.90;;;;;;5026924;28;20041;-67
2023/03/12 11:55:29;;;;;;;;;;;3.30;99.90;;;;;;5027369;28;20137;-67
2023/03/12 11:58:11;;;;;;;31.98;26.55;;;3.30;99.90;;;;;;5026548;28;20020;-67
2023/03/12 12:00:47;;;;;;;34.53;28.10;;;3.30;99.90;;;;;;5020021;28;20053;-67
2023/03/12 12:03:31;;;;;;;41.50;34.35;;;3.40;99.90;;;;;;5023709;28;20034;-67
2023/03/12 12:05:57;;;;;;;32.70;29.35;;;3.50;99.90;;;;;;5022690;28;20042;-67
2023/03/12 12:08:41;;;;;;;42.33;31.92;;;3.50;99.90;;;;;;5029625;28;20389;-67
2023/03/12 12:11:28;;;;;;;48.97;34.42;;;3.60;99.90;;;;;;5023660;28;20068;-67
2023/03/12 12:14:18;;;;;;;39.35;32.65;;;3.60;99.90;;;;;;5016212;28;20053;-67
2023/03/12 12:16:57;;;;;;;43.78;31.88;;;3.70;99.90;;;;;;5027588;28;20041;-69
2023/03/12 12:19:38;;;;;;;54.88;34.90;;;3.80;99.90;;;;;;5027335;28;20042;-68
2023/03/12 12:22:18;;;;;;;42.95;34.28;;;3.80;99.90;;;;;;5022527;28;20061;-69
2023/03/12 12:24:47;;;;;;;48.08;37.42;;;3.90;99.90;;;;;;5019962;28;20041;-69
2023/03/12 12:27:19;;;;;;;48.90;34.75;;;4.00;99.90;;;;;;5028875;28;20124;-68
2023/03/12 12:30:09;;;;;;;55.53;39.63;;;4.10;99.90;;;;;;5023654;28;20552;-68
2023/03/12 12:33:08;;;;;;;51.95;37.92;;;4.20;99.90;;;;;;5015621;28;20057;-68
2023/03/12 12:35:39;;;;;;;57.40;37.97;;;4.20;99.90;;;;;;5021222;28;20041;-68
2023/03/12 12:38:28;;;;;;;63.88;41.25;;;4.30;99.90;;;;;;5022180;28;20053;-68
2023/03/12 12:41:01;;;;;;;63.47;40.78;;;4.30;99.90;;;;;;5019413;28;20060;-67
2023/03/12 12:43:28;;;;;;;56.35;37.58;;;4.40;99.90;;;;;;5023503;28;20126;-67
2023/03/12 12:46:03;;;;;;;59.53;37.30;;;4.40;99.90;;;;;;5020002;28;20112;-67
2023/03/12 12:48:43;;;;;;;62.42;37.28;;;4.50;99.90;;;;;;5017507;28;20045;-67
2023/03/12 12:51:10;;;;;;;63.72;36.53;;;4.60;99.90;;;;;;5025640;28;20485;-68
2023/03/12 12:53:49;;;;;;;67.55;38.72;;;4.60;99.90;;;;;;5024096;28;20168;-67
2023/03/12 12:56:36;;;;;;;62.28;37.58;;;4.70;99.90;;;;;;5026654;28;20057;-67
2023/03/12 12:59:13;;;;;;;63.50;38.50;;;4.80;99.90;;;;;;5020450;28;20041;-67